createdAt,value
2018-03-12T00:00:05.586Z,9.43
2018-03-12T00:01:05.591Z,9.42
2018-03-12T00:02:05.602Z,9.35
2018-03-12T00:03:05.607Z,9.39
2018-03-12T00:04:05.611Z,9.34
2018-03-12T00:05:05.623Z,9.35
2018-03-12T00:06:05.629Z,9.42
2018-03-12T00:07:05.643Z,9.42
2018-03-12T00:08:05.653Z,9.35
2018-03-12T00:09:05.661Z,9.32
2018-03-12T00:10:05.662Z,9.35
2018-03-12T00:11:05.676Z,9.40
2018-03-12T00:12:05.680Z,9.39
2018-03-12T00:13:05.689Z,9.40
2018-03-12T00:14:05.696Z,9.42
2018-03-12T00:15:05.706Z,9.35
2018-03-12T00:16:05.732Z,9.40
2018-03-12T00:17:05.721Z,9.34
2018-03-12T00:18:05.730Z,9.31
2018-03-12T00:19:05.739Z,9.32
2018-03-12T00:20:05.751Z,9.43
2018-03-12T00:21:05.758Z,9.30
2018-03-12T00:22:05.763Z,9.38
2018-03-12T00:23:05.778Z,9.40
2018-03-12T00:24:05.791Z,9.34
2018-03-12T00:25:05.789Z,9.34
2018-03-12T00:26:05.799Z,9.48
2018-03-12T00:27:05.808Z,9.48
2018-03-12T00:28:05.815Z,9.42
2018-03-12T00:29:05.820Z,9.38
2018-03-12T00:30:05.846Z,9.34
2018-03-12T00:31:05.842Z,9.31
2018-03-12T00:32:05.865Z,9.32
2018-03-12T00:33:05.857Z,9.40
2018-03-12T00:34:05.864Z,9.42
2018-03-12T00:35:05.881Z,9.31
2018-03-12T00:36:05.880Z,9.31
2018-03-12T00:37:05.896Z,9.39
2018-03-12T00:38:05.896Z,9.30
2018-03-12T00:39:05.907Z,9.35
2018-03-12T00:40:05.921Z,9.39
2018-03-12T00:41:05.924Z,9.32
2018-03-12T00:42:05.940Z,9.32
2018-03-12T00:43:05.941Z,9.32
2018-03-12T00:44:05.949Z,9.40
2018-03-12T00:45:05.959Z,9.38
2018-03-12T00:46:05.966Z,9.45
2018-03-12T00:47:05.977Z,9.38
2018-03-12T00:48:05.982Z,9.39
2018-03-12T00:49:05.990Z,9.32
2018-03-12T00:50:06.003Z,9.40
2018-03-12T00:51:06.012Z,9.34
2018-03-12T00:52:06.029Z,9.35
2018-03-12T00:53:06.029Z,9.39
2018-03-12T00:54:06.035Z,9.40
2018-03-12T00:55:06.042Z,9.45
2018-03-12T00:56:06.053Z,9.30
2018-03-12T00:57:06.065Z,9.31
2018-03-12T00:58:06.066Z,9.38
2018-03-12T00:59:06.073Z,9.28
2018-03-12T01:00:06.085Z,9.39
2018-03-12T01:01:06.091Z,9.40
2018-03-12T01:02:06.110Z,9.35
2018-03-12T01:03:06.106Z,9.34
2018-03-12T01:04:06.118Z,9.30
2018-03-12T01:05:06.125Z,9.32
2018-03-12T01:06:06.132Z,9.31
2018-03-12T01:07:06.139Z,9.25
2018-03-12T01:08:06.154Z,9.28
2018-03-12T01:09:06.156Z,9.27
2018-03-12T01:10:06.178Z,9.27
2018-03-12T01:11:06.176Z,9.30
2018-03-12T01:12:06.184Z,9.24
2018-03-12T01:13:06.201Z,9.30
2018-03-12T01:14:06.200Z,9.25
2018-03-12T01:15:06.214Z,9.20
2018-03-12T01:16:06.221Z,9.25
2018-03-12T01:17:06.230Z,9.24
2018-03-12T01:18:06.234Z,9.18
2018-03-12T01:19:06.241Z,9.24
2018-03-12T01:20:07.200Z,9.28
2018-03-12T01:21:06.262Z,9.09
2018-03-12T01:22:06.274Z,9.16
2018-03-12T01:23:06.279Z,8.93
2018-03-12T01:24:06.284Z,9.05
2018-03-12T01:25:06.297Z,8.99
2018-03-12T01:26:06.299Z,8.93
2018-03-12T01:27:06.309Z,8.99
2018-03-12T01:28:06.319Z,8.83
2018-03-12T01:29:06.329Z,8.81
2018-03-12T01:30:06.336Z,8.81
2018-03-12T01:31:06.349Z,8.88
2018-03-12T01:32:06.349Z,8.86
2018-03-12T01:33:06.361Z,8.79
2018-03-12T01:34:06.377Z,8.86
2018-03-12T01:35:06.378Z,8.84
2018-03-12T01:36:06.385Z,8.93
2018-03-12T01:37:06.392Z,8.87
2018-03-12T01:38:06.409Z,8.96
2018-03-12T01:39:06.408Z,8.94
2018-03-12T01:40:06.418Z,8.96
2018-03-12T01:41:06.428Z,8.99
2018-03-12T01:42:06.432Z,9.02
2018-03-12T01:43:06.448Z,9.01
2018-03-12T01:44:06.447Z,9.16
2018-03-12T01:45:06.455Z,8.94
2018-03-12T01:46:06.464Z,9.06
2018-03-12T01:47:06.479Z,8.99
2018-03-12T01:48:06.482Z,8.91
2018-03-12T01:49:06.488Z,9.09
2018-03-12T01:50:06.496Z,8.96
2018-03-12T01:51:06.514Z,9.02
2018-03-12T01:52:06.524Z,9.12
2018-03-12T01:53:06.519Z,9.10
2018-03-12T01:54:06.535Z,9.21
2018-03-12T01:55:06.546Z,9.16
2018-03-12T01:56:06.549Z,9.23
2018-03-12T01:57:06.564Z,9.20
2018-03-12T01:58:06.561Z,9.20
2018-03-12T01:59:06.571Z,9.15
2018-03-12T02:00:06.578Z,9.32
2018-03-12T02:01:06.585Z,9.30
2018-03-12T02:02:06.590Z,9.32
2018-03-12T02:03:06.604Z,9.30
2018-03-12T02:04:06.609Z,9.32
2018-03-12T02:05:06.629Z,9.32
2018-03-12T02:06:06.645Z,9.31
2018-03-12T02:07:06.635Z,9.39
2018-03-12T02:08:06.640Z,9.38
2018-03-12T02:09:06.648Z,9.40
2018-03-12T02:10:06.656Z,9.39
2018-03-12T02:11:06.667Z,9.34
2018-03-12T02:12:06.674Z,9.34
2018-03-12T02:13:06.682Z,9.40
2018-03-12T02:14:06.693Z,9.45
2018-03-12T02:15:06.708Z,9.42
2018-03-12T02:16:06.719Z,9.38
2018-03-12T02:17:06.717Z,9.34
2018-03-12T02:18:06.720Z,9.38
2018-03-12T02:19:06.730Z,9.42
2018-03-12T02:20:06.739Z,9.39
2018-03-12T02:21:06.749Z,9.43
2018-03-12T02:22:06.753Z,9.39
2018-03-12T02:23:06.764Z,9.39
2018-03-12T02:24:06.775Z,9.52
2018-03-12T02:25:06.777Z,9.50
2018-03-12T02:26:06.788Z,9.39
2018-03-12T02:27:06.806Z,9.48
2018-03-12T02:28:06.803Z,9.38
2018-03-12T02:29:06.814Z,9.45
2018-03-12T02:30:06.819Z,9.39
2018-03-12T02:31:06.827Z,9.45
2018-03-12T02:32:06.837Z,9.32
2018-03-12T02:33:06.865Z,9.34
2018-03-12T02:34:06.853Z,9.32
2018-03-12T02:35:06.862Z,9.25
2018-03-12T02:36:06.868Z,9.20
2018-03-12T02:37:06.889Z,9.21
2018-03-12T02:38:06.887Z,9.25
2018-03-12T02:39:06.894Z,9.25
2018-03-12T02:40:06.903Z,9.30
2018-03-12T02:41:06.912Z,9.39
2018-03-12T02:42:06.917Z,9.39
2018-03-12T02:43:06.930Z,9.30
2018-03-12T02:44:06.941Z,9.39
2018-03-12T02:45:06.943Z,9.31
2018-03-12T02:46:06.955Z,9.30
2018-03-12T02:47:06.971Z,9.39
2018-03-12T02:48:06.970Z,9.45
2018-03-12T02:49:06.997Z,9.31
2018-03-12T02:50:06.983Z,9.30
2018-03-12T02:51:07.001Z,9.35
2018-03-12T02:52:07.001Z,9.31
2018-03-12T02:53:07.016Z,9.35
2018-03-12T02:54:07.019Z,9.35
2018-03-12T02:55:07.026Z,9.34
2018-03-12T02:56:07.706Z,9.35
2018-03-12T02:57:07.042Z,9.32
2018-03-12T02:58:07.051Z,9.31
2018-03-12T02:59:07.065Z,9.28
2018-03-12T03:00:07.075Z,9.25
2018-03-12T03:01:07.077Z,9.28
2018-03-12T03:02:07.084Z,9.24
2018-03-12T03:03:07.092Z,9.23
2018-03-12T03:04:07.104Z,9.24
2018-03-12T03:05:07.109Z,9.24
2018-03-12T03:06:07.115Z,9.25
2018-03-12T03:07:07.125Z,9.18
2018-03-12T03:08:07.131Z,9.20
2018-03-12T03:09:07.143Z,9.18
2018-03-12T03:10:07.148Z,9.10
2018-03-12T03:11:07.158Z,8.90
2018-03-12T03:12:07.167Z,8.94
2018-03-12T03:13:07.172Z,8.93
2018-03-12T03:14:07.179Z,8.94
2018-03-12T03:15:07.196Z,8.86
2018-03-12T03:16:07.221Z,8.86
2018-03-12T03:17:07.206Z,8.81
2018-03-12T03:18:07.218Z,8.78
2018-03-12T03:19:07.222Z,8.76
2018-03-12T03:20:07.255Z,8.69
2018-03-12T03:21:07.245Z,8.79
2018-03-12T03:22:07.259Z,8.73
2018-03-12T03:23:07.257Z,8.79
2018-03-12T03:24:07.263Z,8.75
2018-03-12T03:25:07.279Z,8.68
2018-03-12T03:26:07.278Z,8.75
2018-03-12T03:27:07.288Z,8.75
2018-03-12T03:28:07.295Z,8.76
2018-03-12T03:29:07.377Z,8.75
2018-03-12T03:30:07.322Z,8.73
2018-03-12T03:31:07.321Z,8.75
2018-03-12T03:32:07.329Z,8.76
2018-03-12T03:33:07.338Z,8.73
2018-03-12T03:34:07.352Z,8.79
2018-03-12T03:35:07.351Z,8.66
2018-03-12T03:36:07.363Z,8.75
2018-03-12T03:37:07.369Z,8.79
2018-03-12T03:38:07.377Z,8.72
2018-03-12T03:39:07.390Z,8.76
2018-03-12T03:40:07.392Z,8.73
2018-03-12T03:41:07.400Z,8.69
2018-03-12T03:42:07.407Z,8.65
2018-03-12T03:43:07.417Z,8.63
2018-03-12T03:44:07.423Z,8.68
2018-03-12T03:45:07.432Z,8.68
2018-03-12T03:46:07.438Z,8.79
2018-03-12T03:47:07.450Z,8.75
2018-03-12T03:48:07.475Z,8.91
2018-03-12T03:49:07.484Z,8.79
2018-03-12T03:50:07.471Z,8.84
2018-03-12T03:51:07.489Z,8.96
2018-03-12T03:52:07.486Z,8.94
2018-03-12T03:53:07.499Z,8.97
2018-03-12T03:54:07.506Z,8.86
2018-03-12T03:55:07.514Z,9.01
2018-03-12T03:56:07.524Z,8.97
2018-03-12T03:57:07.533Z,8.97
2018-03-12T03:58:07.539Z,9.10
2018-03-12T03:59:07.543Z,9.02
2018-03-12T04:00:07.556Z,9.02
2018-03-12T04:01:07.563Z,9.06
2018-03-12T04:02:07.568Z,9.05
2018-03-12T04:03:07.576Z,8.94
2018-03-12T04:04:07.586Z,9.01
2018-03-12T04:05:07.598Z,8.94
2018-03-12T04:06:07.602Z,8.96
2018-03-12T04:07:07.610Z,8.94
2018-03-12T04:08:07.617Z,8.93
2018-03-12T04:09:07.624Z,9.04
2018-03-12T04:10:07.632Z,8.99
2018-03-12T04:11:07.639Z,8.97
2018-03-12T04:12:07.653Z,9.04
2018-03-12T04:13:07.656Z,9.09
2018-03-12T04:14:07.678Z,9.10
2018-03-12T04:15:07.675Z,9.04
2018-03-12T04:16:07.683Z,8.96
2018-03-12T04:17:07.694Z,8.94
2018-03-12T04:18:07.696Z,9.09
2018-03-12T04:19:07.705Z,8.93
2018-03-12T04:20:07.714Z,8.87
2018-03-12T04:21:07.724Z,8.99
2018-03-12T04:22:07.743Z,8.86
2018-03-12T04:23:07.739Z,8.99
2018-03-12T04:24:07.747Z,8.88
2018-03-12T04:25:07.752Z,8.93
2018-03-12T04:26:07.764Z,8.99
2018-03-12T04:27:07.772Z,8.90
2018-03-12T04:28:07.781Z,8.93
2018-03-12T04:29:07.785Z,8.88
2018-03-12T04:30:07.794Z,8.87
2018-03-12T04:31:07.804Z,8.90
2018-03-12T04:32:07.810Z,8.78
2018-03-12T04:33:07.818Z,8.86
2018-03-12T04:34:07.832Z,8.90
2018-03-12T04:35:07.844Z,8.79
2018-03-12T04:36:07.845Z,8.78
2018-03-12T04:37:07.850Z,8.83
2018-03-12T04:38:07.859Z,8.81
2018-03-12T04:39:07.869Z,8.79
2018-03-12T04:40:07.875Z,8.79
2018-03-12T04:41:07.883Z,8.76
2018-03-12T04:42:07.903Z,8.76
2018-03-12T04:43:07.898Z,8.73
2018-03-12T04:44:07.907Z,8.69
2018-03-12T04:45:07.914Z,8.66
2018-03-12T04:46:07.920Z,8.65
2018-03-12T04:47:07.931Z,8.65
2018-03-12T04:48:07.942Z,8.71
2018-03-12T04:49:07.944Z,8.66
2018-03-12T04:50:07.953Z,8.68
2018-03-12T04:51:07.964Z,8.66
2018-03-12T04:52:07.966Z,8.63
2018-03-12T04:53:07.975Z,8.69
2018-03-12T04:54:07.984Z,8.60
2018-03-12T04:55:07.994Z,8.62
2018-03-12T04:56:08.002Z,8.63
2018-03-12T04:57:08.010Z,8.62
2018-03-12T04:58:08.019Z,8.54
2018-03-12T04:59:08.055Z,8.60
2018-03-12T05:00:08.031Z,8.55
2018-03-12T05:01:08.038Z,8.54
2018-03-12T05:02:08.095Z,8.55
2018-03-12T05:03:08.054Z,8.51
2018-03-12T05:04:08.063Z,8.50
2018-03-12T05:05:08.069Z,8.51
2018-03-12T05:06:08.079Z,8.51
2018-03-12T05:07:08.092Z,8.53
2018-03-12T05:08:08.123Z,8.40
2018-03-12T05:09:08.103Z,8.40
2018-03-12T05:10:08.113Z,8.40
2018-03-12T05:11:08.122Z,8.36
2018-03-12T05:12:08.128Z,8.36
2018-03-12T05:13:08.132Z,8.35
2018-03-12T05:14:08.142Z,8.37
2018-03-12T05:15:08.147Z,8.39
2018-03-12T05:16:08.158Z,8.42
2018-03-12T05:17:08.161Z,8.42
2018-03-12T05:18:08.180Z,8.37
2018-03-12T05:19:08.179Z,8.36
2018-03-12T05:20:08.203Z,8.39
2018-03-12T05:21:08.194Z,8.36
2018-03-12T05:22:08.201Z,8.36
2018-03-12T05:23:08.207Z,8.39
2018-03-12T05:24:08.215Z,8.39
2018-03-12T05:25:08.225Z,8.47
2018-03-12T05:26:08.260Z,8.51
2018-03-12T05:27:08.239Z,8.40
2018-03-12T05:28:08.254Z,8.39
2018-03-12T05:29:08.262Z,8.51
2018-03-12T05:30:08.263Z,8.51
2018-03-12T05:31:08.275Z,8.48
2018-03-12T05:32:08.278Z,8.42
2018-03-12T05:33:08.284Z,8.51
2018-03-12T05:34:08.303Z,8.44
2018-03-12T05:35:08.304Z,8.40
2018-03-12T05:36:08.308Z,8.53
2018-03-12T05:37:08.317Z,8.53
2018-03-12T05:38:08.328Z,8.51
2018-03-12T05:39:08.330Z,8.39
2018-03-12T05:40:08.344Z,8.50
2018-03-12T05:41:08.355Z,8.47
2018-03-12T05:42:08.356Z,8.42
2018-03-12T05:43:08.368Z,8.53
2018-03-12T05:44:08.368Z,8.44
2018-03-12T05:45:08.378Z,8.42
2018-03-12T05:46:08.389Z,8.53
2018-03-12T05:47:08.400Z,8.44
2018-03-12T05:48:08.400Z,8.48
2018-03-12T05:49:08.416Z,8.39
2018-03-12T05:50:08.413Z,8.39
2018-03-12T05:51:08.435Z,8.36
2018-03-12T05:52:08.432Z,8.40
2018-03-12T05:53:08.439Z,8.39
2018-03-12T05:54:08.475Z,8.35
2018-03-12T05:55:08.455Z,8.35
2018-03-12T05:56:08.464Z,8.35
2018-03-12T05:57:08.474Z,8.47
2018-03-12T05:58:08.477Z,8.39
2018-03-12T05:59:08.482Z,8.36
2018-03-12T06:00:08.504Z,8.40
2018-03-12T06:01:08.499Z,8.39
2018-03-12T06:02:08.506Z,8.35
2018-03-12T06:03:08.514Z,8.39
2018-03-12T06:04:08.523Z,8.37
2018-03-12T06:05:08.532Z,8.44
2018-03-12T06:06:08.535Z,8.44
2018-03-12T06:07:08.550Z,8.45
2018-03-12T06:08:08.556Z,8.36
2018-03-12T06:09:08.562Z,8.39
2018-03-12T06:10:08.569Z,8.35
2018-03-12T06:11:08.575Z,8.25
2018-03-12T06:12:08.584Z,8.22
2018-03-12T06:13:08.590Z,8.17
2018-03-12T06:14:08.603Z,8.22
2018-03-12T06:15:08.606Z,8.12
2018-03-12T06:16:08.664Z,8.10
2018-03-12T06:17:08.620Z,8.10
2018-03-12T06:18:08.632Z,8.08
2018-03-12T06:19:08.647Z,8.14
2018-03-12T06:20:08.643Z,8.15
2018-03-12T06:21:08.650Z,8.12
2018-03-12T06:22:08.657Z,8.21
2018-03-12T06:23:08.683Z,8.36
2018-03-12T06:24:08.675Z,8.25
2018-03-12T06:25:08.724Z,8.30
2018-03-12T06:26:08.689Z,8.40
2018-03-12T06:27:08.696Z,8.35
2018-03-12T06:28:08.707Z,8.28
2018-03-12T06:29:08.712Z,8.37
2018-03-12T06:30:08.733Z,8.37
2018-03-12T06:31:08.727Z,8.36
2018-03-12T06:32:08.736Z,8.28
2018-03-12T06:33:08.743Z,8.33
2018-03-12T06:34:08.755Z,8.26
2018-03-12T06:35:08.762Z,8.28
2018-03-12T06:36:08.765Z,8.22
2018-03-12T06:37:08.771Z,8.26
2018-03-12T06:38:08.794Z,8.28
2018-03-12T06:39:08.788Z,8.21
2018-03-12T06:40:08.797Z,8.22
2018-03-12T06:41:08.803Z,8.29
2018-03-12T06:42:08.810Z,8.21
2018-03-12T06:43:08.817Z,8.28
2018-03-12T06:44:08.838Z,8.26
2018-03-12T06:45:08.834Z,8.25
2018-03-12T06:46:08.850Z,8.37
2018-03-12T06:47:08.851Z,8.37
2018-03-12T06:48:08.858Z,8.39
2018-03-12T06:49:08.870Z,8.40
2018-03-12T06:50:08.875Z,8.40
2018-03-12T06:51:08.879Z,8.50
2018-03-12T06:52:08.902Z,8.45
2018-03-12T06:53:08.909Z,8.36
2018-03-12T06:54:08.907Z,8.53
2018-03-12T06:55:08.912Z,8.42
2018-03-12T06:56:08.922Z,8.37
2018-03-12T06:57:08.926Z,8.48
2018-03-12T06:58:08.936Z,8.48
2018-03-12T06:59:08.941Z,8.62
2018-03-12T07:00:08.959Z,8.51
2018-03-12T07:01:08.956Z,8.63
2018-03-12T07:02:08.964Z,8.54
2018-03-12T07:03:08.975Z,8.51
2018-03-12T07:04:08.982Z,8.62
2018-03-12T07:05:08.987Z,8.58
2018-03-12T07:06:08.996Z,8.53
2018-03-12T07:07:09.010Z,8.54
2018-03-12T07:08:09.012Z,8.65
2018-03-12T07:09:09.018Z,8.63
2018-03-12T07:10:09.038Z,8.63
2018-03-12T07:11:09.038Z,8.62
2018-03-12T07:12:09.042Z,8.63
2018-03-12T07:13:09.051Z,8.58
2018-03-12T07:14:09.069Z,8.60
2018-03-12T07:15:09.067Z,8.66
2018-03-12T07:16:09.074Z,8.63
2018-03-12T07:17:09.078Z,8.55
2018-03-12T07:18:09.094Z,8.58
2018-03-12T07:19:09.097Z,8.66
2018-03-12T07:20:09.158Z,8.65
2018-03-12T07:21:09.115Z,8.58
2018-03-12T07:22:09.145Z,8.68
2018-03-12T07:23:09.128Z,8.63
2018-03-12T07:24:09.145Z,8.65
2018-03-12T07:25:09.141Z,8.73
2018-03-12T07:26:09.150Z,8.78
2018-03-12T07:27:09.160Z,8.79
2018-03-12T07:28:09.164Z,8.84
2018-03-12T07:29:09.172Z,8.90
2018-03-12T07:30:09.184Z,8.90
2018-03-12T07:31:09.189Z,8.97
2018-03-12T07:32:09.198Z,8.94
2018-03-12T07:33:09.214Z,8.97
2018-03-12T07:34:09.210Z,9.12
2018-03-12T07:35:09.220Z,9.16
2018-03-12T07:36:09.229Z,9.20
2018-03-12T07:37:09.236Z,9.24
2018-03-12T07:38:09.243Z,9.25
2018-03-12T07:39:09.344Z,9.30
2018-03-12T07:40:09.269Z,9.38
2018-03-12T07:41:09.265Z,9.43
2018-03-12T07:42:16.520Z,9.39
2018-03-12T07:44:13.292Z,9.42
2018-03-12T07:45:13.287Z,9.46
2018-03-12T07:47:17.314Z,9.53
2018-03-12T07:48:17.336Z,9.50
2018-03-12T07:50:21.392Z,9.71
2018-03-12T07:51:21.367Z,9.61
2018-03-12T07:53:25.502Z,9.81
2018-03-12T07:54:25.371Z,9.85
2018-03-12T07:56:29.899Z,9.83
2018-03-12T07:57:29.858Z,9.96
2018-03-12T07:58:30.023Z,9.89
2018-03-12T07:59:29.948Z,10.00
2018-03-12T08:00:29.983Z,9.89
2018-03-12T08:01:29.985Z,9.88
2018-03-12T08:02:29.881Z,9.96
2018-03-12T08:03:29.902Z,9.94
2018-03-12T08:04:29.901Z,10.06
2018-03-12T08:05:29.911Z,9.96
2018-03-12T08:06:29.919Z,10.03
2018-03-12T08:07:29.927Z,10.14
2018-03-12T08:08:29.932Z,10.06
2018-03-12T08:09:29.956Z,10.09
2018-03-12T08:10:29.950Z,10.18
2018-03-12T08:11:29.970Z,10.10
2018-03-12T08:12:29.967Z,10.17
2018-03-12T08:13:29.975Z,10.33
2018-03-12T08:14:29.987Z,10.36
2018-03-12T08:15:29.997Z,10.36
2018-03-12T08:16:30.044Z,10.32
2018-03-12T08:17:30.013Z,10.39
2018-03-12T08:18:30.019Z,10.39
2018-03-12T08:19:30.054Z,10.39
2018-03-12T08:20:30.036Z,10.44
2018-03-12T08:21:30.064Z,10.34
2018-03-12T08:22:30.053Z,10.36
2018-03-12T08:23:30.067Z,10.32
2018-03-12T08:24:30.071Z,10.25
2018-03-12T08:25:30.080Z,10.22
2018-03-12T08:26:30.089Z,10.07
2018-03-12T08:27:30.104Z,10.06
2018-03-12T08:28:30.123Z,10.06
2018-03-12T08:29:30.120Z,9.88
2018-03-12T08:30:30.124Z,9.91
2018-03-12T08:31:30.135Z,9.81
2018-03-12T08:32:30.141Z,9.83
2018-03-12T08:33:30.150Z,9.82
2018-03-12T08:34:30.158Z,9.66
2018-03-12T08:35:30.195Z,9.68
2018-03-12T08:36:30.176Z,9.76
2018-03-12T08:37:30.183Z,9.75
2018-03-12T08:38:30.190Z,9.81
2018-03-12T08:39:30.199Z,9.79
2018-03-12T08:40:30.210Z,9.88
2018-03-12T08:41:30.228Z,9.79
2018-03-12T08:42:30.229Z,9.78
2018-03-12T08:43:30.236Z,9.67
2018-03-12T08:44:30.242Z,9.82
2018-03-12T08:45:30.256Z,9.86
2018-03-12T08:46:30.265Z,9.88
2018-03-12T08:47:30.288Z,9.94
2018-03-12T08:48:30.279Z,10.01
2018-03-12T08:49:30.287Z,9.94
2018-03-12T08:50:30.307Z,9.93
2018-03-12T08:51:30.305Z,9.94
2018-03-12T08:52:30.312Z,10.00
2018-03-12T08:53:30.320Z,9.93
2018-03-12T08:54:30.351Z,10.00
2018-03-12T08:55:30.339Z,10.00
2018-03-12T08:56:30.386Z,9.96
2018-03-12T08:57:30.356Z,9.83
2018-03-12T08:58:30.375Z,9.83
2018-03-12T08:59:30.373Z,9.67
2018-03-12T09:00:30.387Z,9.73
2018-03-12T09:01:30.389Z,9.64
2018-03-12T09:02:30.398Z,9.68
2018-03-12T09:03:30.407Z,9.67
2018-03-12T09:04:30.417Z,9.58
2018-03-12T09:05:30.424Z,9.64
2018-03-12T09:06:30.432Z,9.57
2018-03-12T09:07:30.441Z,9.56
2018-03-12T09:08:30.462Z,9.46
2018-03-12T09:09:30.458Z,9.53
2018-03-12T09:10:30.466Z,9.60
2018-03-12T09:11:30.475Z,9.57
2018-03-12T09:12:30.485Z,9.58
2018-03-12T09:13:30.490Z,9.60
2018-03-12T09:14:30.498Z,9.60
2018-03-12T09:15:30.507Z,9.50
2018-03-12T09:16:30.574Z,9.57
2018-03-12T09:17:30.524Z,9.58
2018-03-12T09:18:30.533Z,9.56
2018-03-12T09:19:30.544Z,9.67
2018-03-12T09:20:30.555Z,9.85
2018-03-12T09:21:30.562Z,9.71
2018-03-12T09:22:30.583Z,9.70
2018-03-12T09:23:30.577Z,9.78
2018-03-12T09:24:30.585Z,9.86
2018-03-12T09:25:30.593Z,9.94
2018-03-12T09:26:30.604Z,10.00
2018-03-12T09:27:30.608Z,10.10
2018-03-12T09:28:30.617Z,10.21
2018-03-12T09:29:30.629Z,10.33
2018-03-12T09:30:30.657Z,10.30
2018-03-12T09:31:30.645Z,10.30
2018-03-12T09:32:30.652Z,10.40
2018-03-12T09:33:30.662Z,10.40
2018-03-12T09:34:30.668Z,10.37
2018-03-12T09:35:30.689Z,10.62
2018-03-12T09:36:30.688Z,10.55
2018-03-12T09:37:30.697Z,10.43
2018-03-12T09:38:30.740Z,10.58
2018-03-12T09:39:30.716Z,10.60
2018-03-12T09:40:30.724Z,10.53
2018-03-12T09:41:30.730Z,10.56
2018-03-12T09:42:30.739Z,10.52
2018-03-12T09:43:30.749Z,10.43
2018-03-12T09:44:30.763Z,10.33
2018-03-12T09:45:30.766Z,10.39
2018-03-12T09:46:30.776Z,10.32
2018-03-12T09:47:30.786Z,10.34
2018-03-12T09:48:30.796Z,10.32
2018-03-12T09:49:30.805Z,10.40
2018-03-12T09:50:30.816Z,10.43
2018-03-12T09:51:30.828Z,10.34
2018-03-12T09:52:30.829Z,10.56
2018-03-12T09:53:30.842Z,10.52
2018-03-12T09:54:30.851Z,10.37
2018-03-12T09:55:30.863Z,10.26
2018-03-12T09:56:30.867Z,10.34
2018-03-12T09:57:30.877Z,10.36
2018-03-12T09:58:30.924Z,10.53
2018-03-12T09:59:30.896Z,10.39
2018-03-12T10:00:30.903Z,10.39
2018-03-12T10:01:30.934Z,10.34
2018-03-12T10:02:30.920Z,10.39
2018-03-12T10:03:30.986Z,10.52
2018-03-12T10:04:30.940Z,10.36
2018-03-12T10:05:30.949Z,10.34
2018-03-12T10:06:30.956Z,10.46
2018-03-12T10:07:30.967Z,10.58
2018-03-12T10:08:30.975Z,10.58
2018-03-12T10:09:30.986Z,10.60
2018-03-12T10:10:31.006Z,10.66
2018-03-12T10:11:31.007Z,10.68
2018-03-12T10:12:31.012Z,10.71
2018-03-12T10:13:31.026Z,10.73
2018-03-12T10:14:31.030Z,10.73
2018-03-12T10:15:31.049Z,10.76
2018-03-12T10:16:31.065Z,10.71
2018-03-12T10:17:31.067Z,10.83
2018-03-12T10:18:31.075Z,11.03
2018-03-12T10:19:31.076Z,10.95
2018-03-12T10:20:31.129Z,11.11
2018-03-12T10:21:31.095Z,11.13
2018-03-12T10:22:31.104Z,11.06
2018-03-12T10:23:31.161Z,11.02
2018-03-12T10:24:31.159Z,11.03
2018-03-12T10:25:31.132Z,11.03
2018-03-12T10:26:31.140Z,10.95
2018-03-12T10:27:31.157Z,10.92
2018-03-12T10:28:31.166Z,11.07
2018-03-12T10:29:31.214Z,11.06
2018-03-12T10:30:31.178Z,11.16
2018-03-12T10:31:31.191Z,11.10
2018-03-12T10:32:31.199Z,11.07
2018-03-12T10:33:31.228Z,11.06
2018-03-12T10:34:31.231Z,11.14
2018-03-12T10:35:31.227Z,11.16
2018-03-12T10:36:31.237Z,11.11
2018-03-12T10:37:31.247Z,11.14
2018-03-12T10:38:31.259Z,11.09
2018-03-12T10:39:31.263Z,11.03
2018-03-12T10:40:31.277Z,11.14
2018-03-12T10:41:31.307Z,11.17
2018-03-12T10:42:31.297Z,11.31
2018-03-12T10:43:31.303Z,11.19
2018-03-12T10:44:31.312Z,11.43
2018-03-12T10:45:31.336Z,11.46
2018-03-12T10:46:31.331Z,11.43
2018-03-12T10:47:31.343Z,11.41
2018-03-12T10:48:31.349Z,11.53
2018-03-12T10:49:31.359Z,11.74
2018-03-12T10:50:31.369Z,11.82
2018-03-12T10:51:31.382Z,11.82
2018-03-12T10:52:31.392Z,11.86
2018-03-12T10:53:31.399Z,11.89
2018-03-12T10:54:31.410Z,12.04
2018-03-12T10:55:31.417Z,12.04
2018-03-12T10:56:31.433Z,12.08
2018-03-12T10:57:31.450Z,12.21
2018-03-12T10:58:31.462Z,12.30
2018-03-12T10:59:31.460Z,12.42
2018-03-12T11:00:31.469Z,12.59
2018-03-12T11:01:31.478Z,12.67
2018-03-12T11:02:31.487Z,12.82
2018-03-12T11:03:31.506Z,12.85
2018-03-12T11:04:31.530Z,12.63
2018-03-12T11:05:31.519Z,12.45
2018-03-12T11:06:31.530Z,12.63
2018-03-12T11:07:31.541Z,12.87
2018-03-12T11:08:31.552Z,12.75
2018-03-12T11:09:31.568Z,12.93
2018-03-12T11:10:31.578Z,12.85
2018-03-12T11:11:31.585Z,12.66
2018-03-12T11:12:31.600Z,12.60
2018-03-12T11:13:31.621Z,12.57
2018-03-12T11:14:31.631Z,12.52
2018-03-12T11:15:31.630Z,12.46
2018-03-12T11:16:31.665Z,12.51
2018-03-12T11:17:31.668Z,12.44
2018-03-12T11:18:31.664Z,12.29
2018-03-12T11:19:31.688Z,12.09
2018-03-12T11:20:31.687Z,12.11
2018-03-12T11:21:31.698Z,12.08
2018-03-12T11:22:31.708Z,11.82
2018-03-12T11:23:31.718Z,11.93
2018-03-12T11:24:31.729Z,11.83
2018-03-12T11:25:31.742Z,11.80
2018-03-12T11:26:31.749Z,11.67
2018-03-12T11:27:31.759Z,11.70
2018-03-12T11:28:31.773Z,11.70
2018-03-12T11:29:31.785Z,11.54
2018-03-12T11:30:31.789Z,11.70
2018-03-12T11:31:31.799Z,11.65
2018-03-12T11:32:31.826Z,11.67
2018-03-12T11:33:31.822Z,11.57
2018-03-12T11:34:31.830Z,11.52
2018-03-12T11:35:31.841Z,11.57
2018-03-12T11:36:31.847Z,11.52
2018-03-12T11:37:31.858Z,11.52
2018-03-12T11:38:31.876Z,11.52
2018-03-12T11:39:31.879Z,11.59
2018-03-12T11:40:31.888Z,11.50
2018-03-12T11:41:31.924Z,11.52
2018-03-12T11:42:31.907Z,11.44
2018-03-12T11:43:31.917Z,11.54
2018-03-12T11:44:31.947Z,11.53
2018-03-12T11:45:31.939Z,11.57
2018-03-12T11:46:31.942Z,11.52
2018-03-12T11:47:31.952Z,11.64
2018-03-12T11:48:31.963Z,11.78
2018-03-12T11:49:31.972Z,11.68
2018-03-12T11:50:31.991Z,11.54
2018-03-12T11:51:32.000Z,11.70
2018-03-12T11:52:32.012Z,11.64
2018-03-12T11:53:32.013Z,11.70
2018-03-12T11:54:32.022Z,11.71
2018-03-12T11:55:32.032Z,11.78
2018-03-12T11:56:32.038Z,11.82
2018-03-12T11:57:32.051Z,11.77
2018-03-12T11:58:32.066Z,11.82
2018-03-12T11:59:32.075Z,11.82
2018-03-12T12:00:32.077Z,11.87
2018-03-12T12:01:32.085Z,12.08
2018-03-12T12:02:32.099Z,12.08
2018-03-12T12:03:32.107Z,12.05
2018-03-12T12:04:32.117Z,11.97
2018-03-12T12:05:32.127Z,12.20
2018-03-12T12:06:32.135Z,12.45
2018-03-12T12:07:32.148Z,12.45
2018-03-12T12:08:32.156Z,12.57
2018-03-12T12:09:32.167Z,12.70
2018-03-12T12:10:32.173Z,12.99
2018-03-12T12:11:32.188Z,13.21
2018-03-12T12:12:32.197Z,13.40
2018-03-12T12:13:32.237Z,13.62
2018-03-12T12:14:32.220Z,13.20
2018-03-12T12:15:32.223Z,12.93
2018-03-12T12:16:32.260Z,12.96
2018-03-12T12:17:32.245Z,12.88
2018-03-12T12:18:32.255Z,12.67
2018-03-12T12:19:32.281Z,12.52
2018-03-12T12:20:32.276Z,12.49
2018-03-12T12:21:32.285Z,12.44
2018-03-12T12:22:32.301Z,12.42
2018-03-12T12:23:32.314Z,12.44
2018-03-12T12:24:32.326Z,12.59
2018-03-12T12:25:32.330Z,12.59
2018-03-12T12:26:32.337Z,12.63
2018-03-12T12:27:32.348Z,12.69
2018-03-12T12:28:32.361Z,12.54
2018-03-12T12:29:32.374Z,12.82
2018-03-12T12:30:32.378Z,12.79
2018-03-12T12:31:32.390Z,12.78
2018-03-12T12:32:32.412Z,13.03
2018-03-12T12:33:32.410Z,13.07
2018-03-12T12:34:32.426Z,13.18
2018-03-12T12:35:32.431Z,13.06
2018-03-12T12:36:32.443Z,12.85
2018-03-12T12:37:32.679Z,12.75
2018-03-12T12:38:32.462Z,12.70
2018-03-12T12:39:32.473Z,12.54
2018-03-12T12:40:32.485Z,12.54
2018-03-12T12:41:32.494Z,12.52
2018-03-12T12:42:32.560Z,12.59
2018-03-12T12:43:32.527Z,12.57
2018-03-12T12:44:32.533Z,12.48
2018-03-12T12:45:32.535Z,12.39
2018-03-12T12:46:32.548Z,12.38
2018-03-12T12:47:32.570Z,12.41
2018-03-12T12:48:32.651Z,12.59
2018-03-12T12:49:32.583Z,12.45
2018-03-12T12:50:32.641Z,12.44
2018-03-12T12:51:32.598Z,12.26
2018-03-12T12:52:32.609Z,12.29
2018-03-12T12:53:32.618Z,12.26
2018-03-12T12:54:32.629Z,12.27
2018-03-12T12:55:32.642Z,12.27
2018-03-12T12:56:32.649Z,12.27
2018-03-12T12:57:32.708Z,12.19
2018-03-12T12:58:32.665Z,12.05
2018-03-12T12:59:32.682Z,12.05
2018-03-12T13:00:32.689Z,12.04
2018-03-12T13:01:32.707Z,12.08
2018-03-12T13:02:32.719Z,12.02
2018-03-12T13:03:32.719Z,11.89
2018-03-12T13:04:32.727Z,12.04
2018-03-12T13:05:32.735Z,12.06
2018-03-12T13:06:32.747Z,11.97
2018-03-12T13:07:32.772Z,11.87
2018-03-12T13:08:32.766Z,11.89
2018-03-12T13:09:32.777Z,12.04
2018-03-12T13:10:32.784Z,12.11
2018-03-12T13:11:32.794Z,12.48
2018-03-12T13:12:32.804Z,12.78
2018-03-12T13:13:32.817Z,13.00
2018-03-12T13:14:32.830Z,14.02